Lerwick, United Kingdom
Current Conditions -  °F | °C
As of 7:50 PM on Tuesday 21 Oct 2014 (Local Time) from EGPB Reporting Station
Broken Clouds Broken Clouds  
Wind Chill: 35°   Ceiling: 3900
Heat Index: 45°   Visibility: 6mi
Dew Point: 34°   Wind: 29mph
Humidity: 66%   Direction: 300°WNW
Pressure: 29.47"   Gusts: 43mph
Location:  60.15°N, 1.15°W
Report Text: EGPB 211850Z 30025G37KT 9999 BKN039 07/01 Q0998 NOSIG
Loading
Personal Weather Stations






























Interactive Weather Map New forecast layout! Learn more

10-Day Weather Forecast

Advertisements
Track Severe Weather on mobile